createdAt,value
2019-05-01T00:00:23.851Z,32.00
2019-05-01T00:03:05.906Z,30.88
2019-05-01T00:05:38.653Z,31.17
2019-05-01T00:08:07.751Z,31.48
2019-05-01T00:10:36.666Z,29.70
2019-05-01T00:13:06.093Z,28.92
2019-05-01T00:15:36.437Z,31.70
2019-05-01T00:18:05.304Z,31.77
2019-05-01T00:20:33.795Z,32.17
2019-05-01T00:23:02.325Z,31.83
2019-05-01T00:25:30.853Z,32.83
2019-05-01T00:27:59.414Z,31.70
2019-05-01T00:30:30.371Z,31.60
2019-05-01T00:32:59.039Z,33.90
2019-05-01T00:35:27.788Z,33.20
2019-05-01T00:37:56.258Z,33.40
2019-05-01T00:40:24.811Z,31.80
2019-05-01T00:42:53.268Z,31.85
2019-05-01T00:45:21.832Z,32.75
2019-05-01T00:47:50.295Z,31.27
2019-05-01T00:50:18.848Z,32.80
2019-05-01T00:52:47.380Z,32.30
2019-05-01T00:55:34.486Z,34.98
2019-05-01T00:58:13.883Z,33.02
2019-05-01T01:00:56.216Z,33.53
2019-05-01T01:03:24.757Z,34.93
2019-05-01T01:05:53.308Z,35.48
2019-05-01T01:08:21.789Z,34.67
2019-05-01T01:10:50.363Z,33.02
2019-05-01T01:13:18.929Z,34.30
2019-05-01T01:15:47.470Z,33.47
2019-05-01T01:18:16.025Z,34.95
2019-05-01T01:20:44.632Z,35.07
2019-05-01T01:23:13.162Z,33.45
2019-05-01T01:25:41.712Z,34.13
2019-05-01T01:28:10.589Z,35.55
2019-05-01T01:30:39.217Z,33.50
2019-05-01T01:33:08.358Z,34.95
2019-05-01T01:35:37.050Z,33.23
2019-05-01T01:38:05.648Z,34.03
2019-05-01T01:40:35.551Z,34.53
2019-05-01T01:43:21.947Z,36.73
2019-05-01T01:45:55.247Z,35.33
2019-05-01T01:48:23.875Z,34.05
2019-05-01T01:50:52.407Z,33.33
2019-05-01T01:53:23.039Z,33.33
2019-05-01T01:55:51.946Z,34.83
2019-05-01T01:58:21.387Z,34.65
2019-05-01T02:01:08.964Z,33.78
2019-05-01T02:03:32.621Z,33.25
2019-05-01T02:06:01.317Z,31.73
2019-05-01T02:08:29.997Z,33.60
2019-05-01T02:10:58.640Z,34.00
2019-05-01T02:13:27.315Z,32.70
2019-05-01T02:15:55.992Z,32.65
2019-05-01T02:18:24.633Z,33.50
2019-05-01T02:20:53.304Z,34.83
2019-05-01T02:23:21.873Z,35.10
2019-05-01T02:25:50.471Z,34.33
2019-05-01T02:28:23.616Z,34.93
2019-05-01T02:31:27.135Z,32.50
2019-05-01T02:33:43.391Z,35.17
2019-05-01T02:36:13.898Z,34.90
2019-05-01T02:38:44.810Z,36.20
2019-05-01T02:41:16.640Z,35.10
2019-05-01T02:43:48.183Z,36.77
2019-05-01T02:46:18.287Z,38.00
2019-05-01T02:48:53.036Z,37.90
2019-05-01T02:51:21.760Z,41.50
2019-05-01T02:53:51.282Z,40.83
2019-05-01T02:56:22.879Z,39.70
2019-05-01T02:58:54.239Z,39.20
2019-05-01T03:01:23.372Z,40.77
2019-05-01T03:03:52.866Z,39.63
2019-05-01T03:06:22.392Z,39.43
2019-05-01T03:08:52.157Z,38.80
2019-05-01T03:11:20.828Z,39.07
2019-05-01T03:13:52.028Z,39.23
2019-05-01T03:16:21.354Z,40.77
2019-05-01T03:18:51.594Z,42.17
2019-05-01T03:21:22.024Z,41.28
2019-05-01T03:23:52.197Z,41.37
2019-05-01T03:26:20.746Z,40.45
2019-05-01T03:28:49.286Z,40.63
2019-05-01T03:31:18.204Z,40.50
2019-05-01T03:33:46.785Z,41.30
2019-05-01T03:36:15.869Z,42.10
2019-05-01T03:38:44.659Z,43.63
2019-05-01T03:41:13.742Z,45.63
2019-05-01T03:43:42.309Z,44.13
2019-05-01T03:46:11.092Z,43.80
2019-05-01T03:48:39.652Z,44.70
2019-05-01T03:51:08.448Z,42.37
2019-05-01T03:53:37.175Z,42.97
2019-05-01T03:56:05.799Z,42.43
2019-05-01T03:58:34.432Z,42.27
2019-05-01T04:01:21.116Z,42.40
2019-05-01T04:03:52.029Z,42.87
2019-05-01T04:06:21.613Z,40.50
2019-05-01T04:08:50.409Z,40.30
2019-05-01T04:11:19.428Z,40.70
2019-05-01T04:13:48.250Z,42.27
2019-05-01T04:16:17.884Z,40.33
2019-05-01T04:18:47.407Z,40.00
2019-05-01T04:21:16.084Z,39.10
2019-05-01T04:23:44.768Z,38.73
2019-05-01T04:26:13.508Z,37.60
2019-05-01T04:28:56.041Z,34.63
2019-05-01T04:31:32.228Z,34.73
2019-05-01T04:34:02.537Z,35.05
2019-05-01T04:36:32.895Z,35.20
2019-05-01T04:39:01.492Z,33.00
2019-05-01T04:41:30.100Z,32.10
2019-05-01T04:43:59.151Z,33.20
2019-05-01T04:46:27.827Z,33.28
2019-05-01T04:48:56.722Z,33.17
2019-05-01T04:51:25.350Z,32.60
2019-05-01T04:53:54.032Z,33.08
2019-05-01T04:56:22.735Z,32.30
2019-05-01T04:58:51.483Z,33.40
2019-05-01T05:01:20.403Z,31.90
2019-05-01T05:03:49.103Z,30.40
2019-05-01T05:06:17.698Z,28.92
2019-05-01T05:08:46.379Z,29.67
2019-05-01T05:11:17.226Z,28.12
2019-05-01T05:14:05.801Z,27.00
2019-05-01T05:16:51.240Z,26.50
2019-05-01T05:19:19.939Z,26.30
2019-05-01T05:21:48.803Z,25.47
2019-05-01T05:24:17.768Z,26.23
2019-05-01T05:26:46.576Z,26.67
2019-05-01T05:29:16.914Z,26.50
2019-05-01T05:31:45.774Z,27.20
2019-05-01T05:34:18.253Z,27.07
2019-05-01T05:36:48.692Z,26.90
2019-05-01T05:39:25.450Z,25.90
2019-05-01T05:41:55.520Z,26.10
2019-05-01T05:44:24.242Z,26.97
2019-05-01T05:46:53.002Z,26.07
2019-05-01T05:49:22.259Z,25.80
2019-05-01T05:51:55.306Z,24.43
2019-05-01T05:54:32.717Z,24.90
2019-05-01T05:57:06.055Z,25.55
2019-05-01T05:59:42.492Z,24.33
2019-05-01T06:02:22.908Z,24.98
2019-05-01T06:05:02.084Z,24.10
2019-05-01T06:07:40.035Z,24.87
2019-05-01T06:10:10.456Z,23.70
2019-05-01T06:12:46.818Z,24.20
2019-05-01T06:15:21.700Z,24.70
2019-05-01T06:17:59.044Z,24.00
2019-05-01T06:20:39.239Z,24.85
2019-05-01T06:23:20.467Z,23.03
2019-05-01T06:25:54.243Z,22.02
2019-05-01T06:28:24.791Z,23.25
2019-05-01T06:30:50.673Z,22.45
2019-05-01T06:33:19.249Z,22.65
2019-05-01T06:35:47.872Z,22.20
2019-05-01T06:38:17.543Z,22.67
2019-05-01T06:40:48.183Z,21.23
2019-05-01T06:43:43.698Z,21.68
2019-05-01T06:46:14.279Z,21.37
2019-05-01T06:49:06.621Z,21.60
2019-05-01T06:51:35.607Z,21.00
2019-05-01T06:54:11.502Z,20.90
2019-05-01T06:56:39.868Z,19.67
2019-05-01T06:59:09.384Z,20.73
2019-05-01T07:01:38.740Z,20.73
2019-05-01T07:04:07.519Z,20.90
2019-05-01T07:06:36.353Z,20.63
2019-05-01T07:09:11.798Z,21.63
2019-05-01T07:11:42.136Z,21.30
2019-05-01T07:14:11.040Z,21.90
2019-05-01T07:16:40.683Z,21.40
2019-05-01T07:19:10.167Z,22.10
2019-05-01T07:21:38.952Z,22.05
2019-05-01T07:24:07.641Z,22.30
2019-05-01T07:26:36.285Z,21.87
2019-05-01T07:29:09.942Z,21.75
2019-05-01T07:31:36.979Z,22.98
2019-05-01T07:34:16.011Z,22.30
2019-05-01T07:36:35.886Z,22.25
2019-05-01T07:39:09.955Z,23.30
2019-05-01T07:41:37.729Z,22.98
2019-05-01T07:44:23.716Z,21.90
2019-05-01T07:47:10.444Z,22.30
2019-05-01T07:49:52.733Z,22.75
2019-05-01T07:52:22.364Z,24.30
2019-05-01T07:54:51.335Z,23.80
2019-05-01T07:57:22.976Z,24.63
2019-05-01T07:59:50.429Z,23.70
2019-05-01T08:02:19.044Z,22.60
2019-05-01T08:04:47.540Z,21.10
2019-05-01T08:07:16.011Z,20.40
2019-05-01T08:09:45.800Z,21.68
2019-05-01T08:12:18.745Z,20.73
2019-05-01T08:14:47.849Z,20.68
2019-05-01T08:17:18.202Z,20.15
2019-05-01T08:19:54.903Z,20.47
2019-05-01T08:22:25.547Z,19.40
2019-05-01T08:24:58.688Z,19.77
2019-05-01T08:27:26.004Z,20.07
2019-05-01T08:30:04.965Z,20.87
2019-05-01T08:32:51.235Z,20.20
2019-05-01T08:35:21.436Z,19.80
2019-05-01T08:37:53.841Z,18.25
2019-05-01T08:40:20.779Z,17.23
2019-05-01T08:42:50.244Z,16.30
2019-05-01T08:45:20.505Z,17.30
2019-05-01T08:47:50.706Z,18.80
2019-05-01T08:50:24.724Z,18.00
2019-05-01T08:52:51.027Z,16.77
2019-05-01T08:55:19.669Z,16.50
2019-05-01T08:57:48.282Z,17.70
2019-05-01T09:00:17.096Z,16.97
2019-05-01T09:02:45.667Z,16.87
2019-05-01T09:05:28.529Z,16.82
2019-05-01T09:07:44.686Z,13.53
2019-05-01T09:10:16.954Z,13.58
2019-05-01T09:12:46.911Z,13.55
2019-05-01T09:15:14.712Z,13.13
2019-05-01T09:17:43.710Z,13.40
2019-05-01T09:20:12.800Z,13.93
2019-05-01T09:22:41.672Z,13.30
2019-05-01T09:25:12.264Z,12.63
2019-05-01T09:27:42.440Z,14.03
2019-05-01T09:30:29.245Z,14.37
2019-05-01T09:32:57.795Z,15.43
2019-05-01T09:35:26.423Z,14.13
2019-05-01T09:37:54.915Z,14.03
2019-05-01T09:40:23.537Z,15.10
2019-05-01T09:42:57.497Z,13.45
2019-05-01T09:45:22.531Z,13.30
2019-05-01T09:47:51.185Z,14.90
2019-05-01T09:50:19.860Z,15.90
2019-05-01T09:52:55.129Z,15.37
2019-05-01T09:55:27.295Z,12.13
2019-05-01T09:57:56.114Z,10.93
2019-05-01T10:00:32.162Z,12.53
2019-05-01T10:03:01.307Z,15.40
2019-05-01T10:05:29.867Z,17.25
2019-05-01T10:08:00.074Z,16.20
2019-05-01T10:10:29.240Z,16.20
2019-05-01T10:12:59.011Z,15.07
2019-05-01T10:15:27.702Z,15.50
2019-05-01T10:17:56.449Z,15.65
2019-05-01T10:20:25.107Z,14.30
2019-05-01T10:22:53.893Z,14.20
2019-05-01T10:25:22.453Z,14.00
2019-05-01T10:28:07.158Z,14.20
2019-05-01T10:30:37.618Z,14.03
2019-05-01T10:33:08.074Z,14.50
2019-05-01T10:35:44.377Z,14.53
2019-05-01T10:38:13.205Z,14.58
2019-05-01T10:40:42.002Z,15.95
2019-05-01T10:43:11.203Z,15.00
2019-05-01T10:45:40.024Z,13.30
2019-05-01T10:48:08.796Z,12.50
2019-05-01T10:50:37.505Z,12.43
2019-05-01T10:53:06.164Z,12.80
2019-05-01T10:55:34.869Z,12.90
2019-05-01T10:58:03.583Z,12.70
2019-05-01T11:00:32.231Z,13.53
2019-05-01T11:03:00.854Z,12.70
2019-05-01T11:05:29.694Z,12.50
2019-05-01T11:07:58.320Z,12.40
2019-05-01T11:10:26.951Z,12.67
2019-05-01T11:12:55.589Z,12.60
2019-05-01T11:15:24.299Z,13.97
2019-05-01T11:17:53.002Z,14.20
2019-05-01T11:20:21.617Z,13.17
2019-05-01T11:22:50.253Z,13.00
2019-05-01T11:25:20.612Z,13.10
2019-05-01T11:27:49.198Z,12.80
2019-05-01T11:30:17.919Z,13.00
2019-05-01T11:32:48.085Z,13.90
2019-05-01T11:35:36.128Z,14.53
2019-05-01T11:38:21.594Z,12.60
2019-05-01T11:40:52.270Z,13.00
2019-05-01T11:43:20.847Z,13.67
2019-05-01T11:45:49.396Z,13.53
2019-05-01T11:48:17.965Z,12.60
2019-05-01T11:50:46.451Z,12.60
2019-05-01T11:53:15.040Z,12.20
2019-05-01T11:55:43.720Z,12.87
2019-05-01T11:58:12.473Z,12.40
2019-05-01T12:00:41.190Z,11.97
2019-05-01T12:03:09.791Z,11.80
2019-05-01T12:05:38.388Z,9.13
2019-05-01T12:08:07.011Z,10.48
2019-05-01T12:10:35.668Z,11.20
2019-05-01T12:13:04.439Z,11.10
2019-05-01T12:15:33.337Z,11.15
2019-05-01T12:18:01.900Z,10.40
2019-05-01T12:20:30.372Z,10.10
2019-05-01T12:22:58.881Z,10.30
2019-05-01T12:25:27.463Z,10.80
2019-05-01T12:27:56.095Z,10.25
2019-05-01T12:30:24.703Z,9.76
2019-05-01T12:32:53.383Z,10.48
2019-05-01T12:35:21.973Z,9.40
2019-05-01T12:37:55.145Z,10.00
2019-05-01T12:40:22.725Z,11.00
2019-05-01T12:42:51.333Z,10.60
2019-05-01T12:45:20.121Z,11.08
2019-05-01T12:47:50.341Z,10.90
2019-05-01T12:50:19.934Z,10.20
2019-05-01T12:52:52.989Z,9.97
2019-05-01T12:55:34.662Z,10.00
2019-05-01T12:58:03.214Z,9.18
2019-05-01T13:00:43.393Z,9.30
2019-05-01T13:03:12.322Z,9.30
2019-05-01T13:05:41.046Z,9.70
2019-05-01T13:08:09.772Z,9.13
2019-05-01T13:10:38.333Z,8.80
2019-05-01T13:13:06.928Z,8.07
2019-05-01T13:15:35.422Z,7.93
2019-05-01T13:18:04.086Z,7.12
2019-05-01T13:20:32.659Z,8.10
2019-05-01T13:23:01.191Z,9.88
2019-05-01T13:25:29.843Z,9.27
2019-05-01T13:28:08.760Z,9.90
2019-05-01T13:30:38.960Z,9.70
2019-05-01T13:33:07.492Z,9.40
2019-05-01T13:35:36.035Z,11.03
2019-05-01T13:38:04.699Z,10.17
2019-05-01T13:40:33.248Z,9.70
2019-05-01T13:43:01.849Z,9.75
2019-05-01T13:45:30.429Z,9.30
2019-05-01T13:48:00.006Z,9.33
2019-05-01T13:50:28.856Z,9.10
2019-05-01T13:52:57.333Z,8.50
2019-05-01T13:55:25.860Z,8.20
2019-05-01T13:57:54.428Z,8.13
2019-05-01T14:00:24.896Z,8.05
2019-05-01T14:02:53.588Z,8.37
2019-05-01T14:05:22.053Z,8.18
2019-05-01T14:07:50.647Z,7.95
2019-05-01T14:10:19.772Z,7.67
2019-05-01T14:12:48.247Z,6.40
2019-05-01T14:15:18.344Z,6.13
2019-05-01T14:17:47.140Z,6.30
2019-05-01T14:20:17.545Z,6.60
2019-05-01T14:22:50.535Z,6.83
2019-05-01T14:25:19.014Z,6.62
2019-05-01T14:27:47.627Z,7.27
2019-05-01T14:30:16.257Z,7.47
2019-05-01T14:32:44.933Z,7.17
2019-05-01T14:35:13.845Z,6.30
2019-05-01T14:37:42.384Z,5.90
2019-05-01T14:40:11.388Z,5.97
2019-05-01T14:42:39.960Z,5.50
2019-05-01T14:45:10.334Z,6.00
2019-05-01T14:47:38.904Z,5.20
2019-05-01T14:50:08.354Z,5.47
2019-05-01T14:52:36.957Z,5.03
2019-05-01T14:55:07.268Z,5.20
2019-05-01T14:57:35.811Z,5.30
2019-05-01T15:00:08.599Z,5.67
2019-05-01T15:02:37.063Z,5.30
2019-05-01T15:05:07.244Z,5.37
2019-05-01T15:07:43.245Z,5.50
2019-05-01T15:10:06.646Z,4.97
2019-05-01T15:12:35.275Z,4.50
2019-05-01T15:15:09.443Z,4.27
2019-05-01T15:17:51.392Z,4.70
2019-05-01T15:20:19.849Z,4.70
2019-05-01T15:22:48.384Z,5.07
2019-05-01T15:25:17.299Z,5.73
2019-05-01T15:27:46.369Z,4.80
2019-05-01T15:30:17.928Z,5.50
2019-05-01T15:32:46.912Z,5.50
2019-05-01T15:35:15.509Z,5.78
2019-05-01T15:37:55.938Z,5.90
2019-05-01T15:40:16.456Z,5.78
2019-05-01T15:42:58.352Z,5.10
2019-05-01T15:45:26.814Z,5.30
2019-05-01T15:47:55.347Z,5.10
2019-05-01T15:50:23.828Z,4.93
2019-05-01T15:52:52.296Z,5.12
2019-05-01T15:55:20.892Z,5.20
2019-05-01T15:57:49.455Z,4.87
2019-05-01T16:00:20.527Z,5.20
2019-05-01T16:02:49.155Z,5.20
2019-05-01T16:05:17.751Z,5.30
2019-05-01T16:07:46.384Z,5.40
2019-05-01T16:10:16.851Z,5.27
2019-05-01T16:12:49.594Z,5.20
2019-05-01T16:15:19.900Z,5.30
2019-05-01T16:17:48.428Z,5.00
2019-05-01T16:20:17.154Z,5.50
2019-05-01T16:22:45.626Z,5.00
2019-05-01T16:25:14.315Z,5.85
2019-05-01T16:27:42.825Z,5.10
2019-05-01T16:30:13.444Z,5.70
2019-05-01T16:32:42.011Z,5.00
2019-05-01T16:35:10.609Z,5.37
2019-05-01T16:37:39.309Z,5.60
2019-05-01T16:40:26.032Z,5.40
2019-05-01T16:42:54.628Z,5.70
2019-05-01T16:45:23.352Z,5.42
2019-05-01T16:47:51.927Z,5.70
2019-05-01T16:50:20.744Z,5.80
2019-05-01T16:52:49.286Z,7.00
2019-05-01T16:55:18.588Z,5.87
2019-05-01T16:57:47.301Z,5.53
2019-05-01T17:00:16.989Z,5.97
2019-05-01T17:03:02.406Z,5.33
2019-05-01T17:05:41.435Z,5.62
2019-05-01T17:08:11.810Z,5.80
2019-05-01T17:10:51.197Z,5.60
2019-05-01T17:13:20.042Z,5.33
2019-05-01T17:15:50.325Z,5.50
2019-05-01T17:18:19.888Z,5.30
2019-05-01T17:20:48.540Z,5.20
2019-05-01T17:23:17.272Z,5.80
2019-05-01T17:25:45.955Z,5.50
2019-05-01T17:28:14.608Z,5.50
2019-05-01T17:30:46.816Z,6.50
2019-05-01T17:33:20.845Z,5.70
2019-05-01T17:35:45.764Z,6.20
2019-05-01T17:38:15.376Z,6.92
2019-05-01T17:40:47.373Z,7.30
2019-05-01T17:43:15.469Z,7.30
2019-05-01T17:45:44.202Z,7.00
2019-05-01T17:48:12.941Z,7.10
2019-05-01T17:50:41.846Z,7.73
2019-05-01T17:53:10.440Z,7.72
2019-05-01T17:55:39.078Z,7.53
2019-05-01T17:58:07.693Z,8.00
2019-05-01T18:00:38.120Z,7.83
2019-05-01T18:03:24.892Z,7.93
2019-05-01T18:05:56.175Z,7.20
2019-05-01T18:08:25.759Z,7.80
2019-05-01T18:10:54.436Z,7.70
2019-05-01T18:13:23.139Z,7.75
2019-05-01T18:15:52.142Z,7.90
2019-05-01T18:18:20.873Z,7.60
2019-05-01T18:20:49.939Z,7.70
2019-05-01T18:23:26.361Z,7.10
2019-05-01T18:26:04.810Z,8.10
2019-05-01T18:28:50.120Z,8.60
2019-05-01T18:31:20.542Z,7.73
2019-05-01T18:33:49.414Z,8.38
2019-05-01T18:36:20.055Z,7.70
2019-05-01T18:38:51.850Z,8.53
2019-05-01T18:41:22.273Z,8.13
2019-05-01T18:43:51.040Z,8.00
2019-05-01T18:46:19.982Z,7.90
2019-05-01T18:48:48.759Z,8.20
2019-05-01T18:51:17.639Z,8.50
2019-05-01T18:53:46.558Z,8.50
2019-05-01T18:56:15.480Z,8.80
2019-05-01T18:58:44.361Z,8.20
2019-05-01T19:01:13.299Z,8.30
2019-05-01T19:03:42.715Z,8.30
2019-05-01T19:06:12.551Z,8.50
2019-05-01T19:08:41.459Z,8.45
2019-05-01T19:11:12.711Z,7.90
2019-05-01T19:13:41.572Z,7.70
2019-05-01T19:16:10.584Z,7.97
2019-05-01T19:18:39.366Z,8.15
2019-05-01T19:21:08.302Z,8.03
2019-05-01T19:23:37.249Z,8.10
2019-05-01T19:26:07.551Z,7.87
2019-05-01T19:28:36.455Z,8.47
2019-05-01T19:31:05.510Z,8.37
2019-05-01T19:33:34.362Z,8.10
2019-05-01T19:36:08.074Z,9.60
2019-05-01T19:38:35.021Z,9.83
2019-05-01T19:41:08.847Z,10.10
2019-05-01T19:43:35.901Z,12.00
2019-05-01T19:46:06.190Z,10.43
2019-05-01T19:48:35.079Z,9.80
2019-05-01T19:51:03.969Z,10.40
2019-05-01T19:53:32.844Z,11.00
2019-05-01T19:56:01.668Z,9.23
2019-05-01T19:58:30.664Z,10.98
2019-05-01T20:00:59.973Z,9.03
2019-05-01T20:03:30.643Z,10.53
2019-05-01T20:06:04.337Z,10.30
2019-05-01T20:08:29.958Z,9.30
2019-05-01T20:10:58.827Z,9.70
2019-05-01T20:13:28.806Z,8.70
2019-05-01T20:15:57.751Z,9.58
2019-05-01T20:18:26.555Z,9.80
2019-05-01T20:20:55.426Z,9.40
2019-05-01T20:23:26.214Z,9.77
2019-05-01T20:25:55.861Z,10.10
2019-05-01T20:28:25.377Z,9.85
2019-05-01T20:30:54.270Z,10.60
2019-05-01T20:33:23.153Z,9.83
2019-05-01T20:35:52.115Z,10.47
2019-05-01T20:38:20.925Z,9.80
2019-05-01T20:40:49.848Z,10.87
2019-05-01T20:43:19.018Z,11.08
2019-05-01T20:45:49.766Z,10.98
2019-05-01T20:48:23.434Z,10.87
2019-05-01T20:50:48.967Z,10.50
2019-05-01T20:53:17.908Z,11.30
2019-05-01T20:55:48.333Z,11.10
2019-05-01T20:58:17.734Z,11.10
2019-05-01T21:00:48.123Z,10.45
2019-05-01T21:03:18.362Z,11.97
2019-05-01T21:05:49.586Z,11.08
2019-05-01T21:08:34.354Z,10.90
2019-05-01T21:11:06.088Z,11.90
2019-05-01T21:13:33.740Z,13.00
2019-05-01T21:16:03.858Z,13.00
2019-05-01T21:18:32.715Z,12.47
2019-05-01T21:21:03.341Z,13.60
2019-05-01T21:23:33.400Z,15.60
2019-05-01T21:26:03.895Z,16.20
2019-05-01T21:28:34.060Z,14.47
2019-05-01T21:31:03.896Z,14.35
2019-05-01T21:33:33.983Z,14.45
2019-05-01T21:36:05.004Z,14.05
2019-05-01T21:38:32.890Z,15.47
2019-05-01T21:41:02.748Z,15.23
2019-05-01T21:43:35.268Z,15.77
2019-05-01T21:46:03.780Z,14.30
2019-05-01T21:48:33.457Z,14.20
2019-05-01T21:51:03.427Z,13.80
2019-05-01T21:53:32.846Z,14.10
2019-05-01T21:56:02.316Z,13.50
2019-05-01T21:58:33.457Z,14.18
2019-05-01T22:01:01.964Z,14.07
2019-05-01T22:03:30.585Z,13.10
2019-05-01T22:05:59.280Z,13.63
2019-05-01T22:08:27.815Z,12.73
2019-05-01T22:11:01.330Z,13.20
2019-05-01T22:13:26.868Z,12.60
2019-05-01T22:15:57.089Z,12.63
2019-05-01T22:18:27.272Z,12.83
2019-05-01T22:20:57.554Z,13.45
2019-05-01T22:23:27.743Z,12.55
2019-05-01T22:25:57.979Z,12.03
2019-05-01T22:28:28.117Z,12.47
2019-05-01T22:30:58.872Z,12.18
2019-05-01T22:33:28.083Z,13.10
2019-05-01T22:35:56.630Z,12.40
2019-05-01T22:38:25.276Z,12.50
2019-05-01T22:41:06.136Z,12.00
2019-05-01T22:43:25.915Z,11.68
2019-05-01T22:45:59.684Z,12.30
2019-05-01T22:48:24.875Z,12.20
2019-05-01T22:50:55.080Z,11.60
2019-05-01T22:53:23.611Z,12.55
2019-05-01T22:55:52.143Z,12.55
2019-05-01T22:58:20.756Z,12.67
2019-05-01T23:00:50.974Z,13.70
2019-05-01T23:03:21.241Z,14.30
2019-05-01T23:05:49.722Z,14.78
2019-05-01T23:08:18.256Z,13.97
2019-05-01T23:10:48.547Z,14.90
2019-05-01T23:13:17.209Z,14.03
2019-05-01T23:15:46.043Z,14.60
2019-05-01T23:18:15.484Z,14.43
2019-05-01T23:20:44.918Z,14.28
2019-05-01T23:23:13.613Z,14.67
2019-05-01T23:25:42.421Z,15.00
2019-05-01T23:28:11.058Z,15.05
2019-05-01T23:30:39.594Z,15.10
2019-05-01T23:33:08.206Z,15.23
2019-05-01T23:35:36.764Z,15.53
2019-05-01T23:38:05.689Z,14.50
2019-05-01T23:40:34.295Z,14.20
2019-05-01T23:43:02.820Z,13.50
2019-05-01T23:45:31.367Z,13.67
2019-05-01T23:48:00.842Z,13.30
2019-05-01T23:50:29.408Z,13.20
2019-05-01T23:52:57.911Z,13.60
2019-05-01T23:55:26.450Z,12.70
2019-05-01T23:57:55.060Z,11.53
